< < Back
Terminal Aerodrome Forecast


Current Version              Previous Versions:   1  2  3  4  5  6  7  8  9  

Terminal Aerodrome Forecast

806
FTUS42 KTAE 261359 AAA
TAFTLH
TAF AMD
KTLH 261359Z 2614/2712 12009KT P6SM VCTS SCT025CB BKN100 BKN250
      TEMPO 2619/2623 VRB15G25KT 3SM TSRA OVC025CB
     FM262300 VRB03KT P6SM FEW050 SCT100 BKN200
     FM271000 10004KT P6SM BKN015=

Latest METAR

743
SAUS80 KWBC 261500 RRC
MTRTLH
METAR KTLH 261453Z 14006KT 10SM -TSRA FEW020CB SCT045 BKN100 26/22 A3020
RMK AO2 RAE1355B31 SLP225 FRQ LTGICCG OHD-SE-SW TS OHD-SE-SW
MOV N P0001 60001 T02560222 51008


USA.gov is the U.S. government's official web portal to all federal, state and local government web resources and services.